Minerva Anna — SVNP — position and weather

sailwx.info

Track history (hours):
 
Tides and Currents Weather Stations Pressure Air Temp Water Temp Dewpoint Dewpoint Depression Visibility Wind Speed Wind Dir Waves Ship Positions

Minerva Anna

Last reported at 2015-May-07 07:33 UTC. Time now 2015-May-07 07:36 UTC.
Position N 36°08' E 025°03'.

AWS

Date/timePositionNaut miles runAvg speedWind from/ knotsBaromVisibWave heightAir tempDewpointWater temp
2015-May-07 07:33N 36°08' E 025°03'6 6.4
2015-May-07 06:33N 36°04' E 025°10'7 6.4
2015-May-07 05:32N 36°01' E 025°17'8 6.5
2015-May-07 04:18N 35°56' E 025°25'5 6.6
2015-May-07 03:33N 35°54' E 025°30'7 6.5
2015-May-07 02:33N 35°50' E 025°37'25 6.3
2015-May-06 22:30N 35°36' E 026°03'  
2015-Apr-30 01:23N 31°14' E 029°43'0 0.0
2015-Apr-29 20:06N 31°14' E 029°43'0 0.0
2015-Apr-28 10:13N 31°14' E 029°43'  
Track history (hours):
 
Tides and Currents Weather Stations Pressure Air Temp Water Temp Dewpoint Dewpoint Depression Visibility Wind Speed Wind Dir Waves Ship Positions

Minerva Anna

Last reported at 2015-May-07 07:33 UTC. Time now 2015-May-07 07:36 UTC.
Position N 36°08' E 025°03'.

AWS

Date/timePositionNaut miles runAvg speedWind from/ knotsBaromVisibWave heightAir tempDewpointWater temp
2015-May-07 07:33N 36°08' E 025°03'6 6.4
2015-May-07 06:33N 36°04' E 025°10'7 6.4
2015-May-07 05:32N 36°01' E 025°17'8 6.5
2015-May-07 04:18N 35°56' E 025°25'5 6.6
2015-May-07 03:33N 35°54' E 025°30'7 6.5
2015-May-07 02:33N 35°50' E 025°37'25 6.3
2015-May-06 22:30N 35°36' E 026°03'  
2015-Apr-30 01:23N 31°14' E 029°43'0 0.0
2015-Apr-29 20:06N 31°14' E 029°43'0 0.0
2015-Apr-28 10:13N 31°14' E 029°43'  

Dump ship's entire track history